createdAt,value
2023-11-04T00:00:23.028Z,8.20
2023-11-04T00:02:50.082Z,6.93
2023-11-04T00:05:16.890Z,7.30
2023-11-04T00:07:43.954Z,6.40
2023-11-04T00:10:11.478Z,6.32
2023-11-04T00:12:38.785Z,7.70
2023-11-04T00:15:07.087Z,6.43
2023-11-04T00:17:34.070Z,7.00
2023-11-04T00:20:00.855Z,7.93
2023-11-04T00:22:27.586Z,7.07
2023-11-04T00:24:54.969Z,7.35
2023-11-04T00:27:22.304Z,8.43
2023-11-04T00:29:49.357Z,8.35
2023-11-04T00:32:16.383Z,8.25
2023-11-04T00:34:46.063Z,7.53
2023-11-04T00:37:12.833Z,9.27
2023-11-04T00:39:39.601Z,7.82
2023-11-04T00:42:06.540Z,7.55
2023-11-04T00:44:33.372Z,7.88
2023-11-04T00:47:00.752Z,7.70
2023-11-04T00:49:27.657Z,9.65
2023-11-04T00:51:54.634Z,11.60
2023-11-04T00:54:21.363Z,10.23
2023-11-04T00:56:48.333Z,11.43
2023-11-04T00:59:15.211Z,10.23
2023-11-04T01:01:42.755Z,10.65
2023-11-04T01:04:09.719Z,11.32
2023-11-04T01:06:36.658Z,10.32
2023-11-04T01:09:05.098Z,10.18
2023-11-04T01:11:31.871Z,9.75
2023-11-04T01:13:59.341Z,10.68
2023-11-04T01:16:26.161Z,10.20
2023-11-04T01:18:53.123Z,9.55
2023-11-04T01:21:20.079Z,9.70
2023-11-04T01:23:46.925Z,10.18
2023-11-04T01:26:13.641Z,10.40
2023-11-04T01:28:40.435Z,11.05
2023-11-04T01:31:07.720Z,8.73
2023-11-04T01:33:34.565Z,8.15
2023-11-04T01:36:01.644Z,8.90
2023-11-04T01:38:28.468Z,9.07
2023-11-04T01:40:55.874Z,9.43
2023-11-04T01:43:30.435Z,8.98
2023-11-04T01:46:10.617Z,8.57
2023-11-04T01:48:38.016Z,8.65
2023-11-04T01:51:05.556Z,8.85
2023-11-04T01:53:33.757Z,8.75
2023-11-04T01:56:01.744Z,8.38
2023-11-04T01:58:30.373Z,8.20
2023-11-04T02:00:59.323Z,7.85
2023-11-04T02:03:26.767Z,7.10
2023-11-04T02:05:53.951Z,6.57
2023-11-04T02:08:21.144Z,7.28
2023-11-04T02:10:48.494Z,6.80
2023-11-04T02:13:15.302Z,7.22
2023-11-04T02:15:42.122Z,5.80
2023-11-04T02:18:09.131Z,5.80
2023-11-04T02:20:36.298Z,4.30
2023-11-04T02:23:03.016Z,5.25
2023-11-04T02:25:33.364Z,4.55
2023-11-04T02:28:00.054Z,4.97
2023-11-04T02:30:27.090Z,5.15
2023-11-04T02:32:53.964Z,4.57
2023-11-04T02:35:22.198Z,3.97
2023-11-04T02:37:49.245Z,4.18
2023-11-04T02:40:16.634Z,4.20
2023-11-04T02:42:43.635Z,4.82
2023-11-04T02:45:12.282Z,4.68
2023-11-04T02:47:39.189Z,4.88
2023-11-04T02:50:06.541Z,5.60
2023-11-04T02:52:33.235Z,5.57
2023-11-04T02:54:59.936Z,7.75
2023-11-04T02:57:26.829Z,6.20
2023-11-04T02:59:53.648Z,5.55
2023-11-04T03:02:21.623Z,4.57
2023-11-04T03:04:48.448Z,4.25
2023-11-04T03:07:15.310Z,4.25
2023-11-04T03:09:42.094Z,4.40
2023-11-04T03:12:09.028Z,4.78
2023-11-04T03:14:36.072Z,4.32
2023-11-04T03:17:03.102Z,4.28
2023-11-04T03:19:29.841Z,4.10
2023-11-04T03:21:57.741Z,5.30
2023-11-04T03:24:25.864Z,4.32
2023-11-04T03:26:53.316Z,4.50
2023-11-04T03:29:19.984Z,4.70
2023-11-04T03:31:46.698Z,5.65
2023-11-04T03:34:13.554Z,4.80
2023-11-04T03:36:40.363Z,4.50
2023-11-04T03:39:07.293Z,4.75
2023-11-04T03:41:34.310Z,5.63
2023-11-04T03:44:01.048Z,5.40
2023-11-04T03:46:27.776Z,4.82
2023-11-04T03:48:54.555Z,4.65
2023-11-04T03:51:21.312Z,5.45
2023-11-04T03:53:55.756Z,4.28
2023-11-04T03:56:23.522Z,5.00
2023-11-04T03:58:50.263Z,4.88
2023-11-04T04:01:17.033Z,5.70
2023-11-04T04:03:43.792Z,4.85
2023-11-04T04:06:10.943Z,5.80
2023-11-04T04:08:37.605Z,6.03
2023-11-04T04:11:04.903Z,5.47
2023-11-04T04:13:31.781Z,5.00
2023-11-04T04:15:58.463Z,5.10
2023-11-04T04:18:25.297Z,5.93
2023-11-04T04:20:52.066Z,6.50
2023-11-04T04:23:18.815Z,5.10
2023-11-04T04:25:45.504Z,6.05
2023-11-04T04:28:12.319Z,5.22
2023-11-04T04:30:38.997Z,5.15
2023-11-04T04:33:06.653Z,4.93
2023-11-04T04:35:33.555Z,4.30
2023-11-04T04:38:00.262Z,4.43
2023-11-04T04:40:28.764Z,4.13
2023-11-04T04:42:55.851Z,3.83
2023-11-04T04:45:22.746Z,4.32
2023-11-04T04:47:49.529Z,3.85
2023-11-04T04:50:16.379Z,3.72
2023-11-04T04:52:43.059Z,4.40
2023-11-04T04:55:09.803Z,4.18
2023-11-04T04:57:39.273Z,4.32
2023-11-04T05:00:07.909Z,4.32
2023-11-04T05:02:37.677Z,4.25
2023-11-04T05:05:04.802Z,4.82
2023-11-04T05:07:31.549Z,4.32
2023-11-04T05:09:58.831Z,4.35
2023-11-04T05:12:25.672Z,4.68
2023-11-04T05:14:52.359Z,4.32
2023-11-04T05:17:19.407Z,4.85
2023-11-04T05:19:47.779Z,5.43
2023-11-04T05:22:14.499Z,4.70
2023-11-04T05:24:41.392Z,4.80
2023-11-04T05:27:08.135Z,5.43
2023-11-04T05:29:35.511Z,5.65
2023-11-04T05:32:02.263Z,4.00
2023-11-04T05:34:28.975Z,4.40
2023-11-04T05:36:55.707Z,4.13
2023-11-04T05:39:22.539Z,3.55
2023-11-04T05:41:49.330Z,3.30
2023-11-04T05:44:16.931Z,3.63
2023-11-04T05:46:47.641Z,4.22
2023-11-04T05:49:14.995Z,2.20
2023-11-04T05:51:41.764Z,3.00
2023-11-04T05:54:13.034Z,2.78
2023-11-04T05:56:39.935Z,2.30
2023-11-04T05:59:06.698Z,2.75
2023-11-04T06:01:33.436Z,2.38
2023-11-04T06:04:00.325Z,2.30
2023-11-04T06:06:27.204Z,1.23
2023-11-04T06:08:54.671Z,1.27
2023-11-04T06:11:23.978Z,1.30
2023-11-04T06:13:51.104Z,1.70
2023-11-04T06:16:17.822Z,1.50
2023-11-04T06:18:46.567Z,1.40
2023-11-04T06:21:19.260Z,2.30
2023-11-04T06:23:45.956Z,1.52
2023-11-04T06:26:12.642Z,1.35
2023-11-04T06:28:40.942Z,1.67
2023-11-04T06:31:11.567Z,1.55
2023-11-04T06:33:38.369Z,2.30
2023-11-04T06:36:06.108Z,2.90
2023-11-04T06:38:37.767Z,3.63
2023-11-04T06:41:06.038Z,3.22
2023-11-04T06:43:34.129Z,3.33
2023-11-04T06:46:06.223Z,3.50
2023-11-04T06:48:33.021Z,3.25
2023-11-04T06:50:59.796Z,5.13
2023-11-04T06:53:26.470Z,2.22
2023-11-04T06:55:53.432Z,1.70
2023-11-04T06:58:20.092Z,1.55
2023-11-04T07:00:46.929Z,1.77
2023-11-04T07:03:13.779Z,2.80
2023-11-04T07:05:42.018Z,1.60
2023-11-04T07:08:08.760Z,1.88
2023-11-04T07:10:38.424Z,1.65
2023-11-04T07:13:05.372Z,1.58
2023-11-04T07:15:33.134Z,1.42
2023-11-04T07:17:59.870Z,1.40
2023-11-04T07:20:27.168Z,1.00
2023-11-04T07:22:53.850Z,1.33
2023-11-04T07:25:20.987Z,1.30
2023-11-04T07:27:47.725Z,1.67
2023-11-04T07:30:15.200Z,0.90
2023-11-04T07:32:42.734Z,2.22
2023-11-04T07:35:11.208Z,1.10
2023-11-04T07:37:38.535Z,1.02
2023-11-04T07:40:09.752Z,0.93
2023-11-04T07:42:36.934Z,0.70
2023-11-04T07:45:03.773Z,1.10
2023-11-04T07:47:30.461Z,0.80
2023-11-04T07:49:57.208Z,0.73
2023-11-04T07:52:23.926Z,0.75
2023-11-04T07:54:50.862Z,0.52
2023-11-04T07:57:17.839Z,0.63
2023-11-04T07:59:45.613Z,0.60
2023-11-04T08:02:12.285Z,0.65
2023-11-04T08:04:40.445Z,0.98
2023-11-04T08:07:10.337Z,1.38
2023-11-04T08:09:37.280Z,0.55
2023-11-04T08:12:03.944Z,0.60
2023-11-04T08:14:30.659Z,0.80
2023-11-04T08:16:57.275Z,0.88
2023-11-04T08:19:24.030Z,0.77
2023-11-04T08:21:52.554Z,0.90
2023-11-04T08:24:19.392Z,0.65
2023-11-04T08:26:46.069Z,0.70
2023-11-04T08:29:12.821Z,0.85
2023-11-04T08:31:39.474Z,1.63
2023-11-04T08:34:06.329Z,2.92
2023-11-04T08:36:33.224Z,1.10
2023-11-04T08:39:00.412Z,1.35
2023-11-04T08:41:27.126Z,3.28
2023-11-04T08:43:53.797Z,1.73
2023-11-04T08:46:20.615Z,0.80
2023-11-04T08:48:47.506Z,1.63
2023-11-04T08:51:14.300Z,1.85
2023-11-04T08:53:41.004Z,2.10
2023-11-04T08:56:08.257Z,1.85
2023-11-04T08:58:38.412Z,2.03
2023-11-04T09:01:05.840Z,2.60
2023-11-04T09:03:32.579Z,2.00
2023-11-04T09:05:59.451Z,2.20
2023-11-04T09:08:26.216Z,3.50
2023-11-04T09:10:54.118Z,2.40
2023-11-04T09:13:22.318Z,3.35
2023-11-04T09:15:49.049Z,2.38
2023-11-04T09:18:18.419Z,3.15
2023-11-04T09:20:47.244Z,3.67
2023-11-04T09:23:14.019Z,3.25
2023-11-04T09:25:40.666Z,4.55
2023-11-04T09:28:07.587Z,3.97
2023-11-04T09:30:34.437Z,4.40
2023-11-04T09:33:01.411Z,6.68
2023-11-04T09:35:28.189Z,4.50
2023-11-04T09:37:54.890Z,2.97
2023-11-04T09:40:21.537Z,2.30
2023-11-04T09:42:48.828Z,3.22
2023-11-04T09:45:17.870Z,2.88
2023-11-04T09:47:44.603Z,2.45
2023-11-04T09:50:11.445Z,2.03
2023-11-04T09:52:39.693Z,2.03
2023-11-04T09:55:08.140Z,2.40
2023-11-04T09:57:35.903Z,2.22
2023-11-04T10:00:04.765Z,2.08
2023-11-04T10:02:31.469Z,2.03
2023-11-04T10:04:59.795Z,2.70
2023-11-04T10:07:26.511Z,2.00
2023-11-04T10:09:55.027Z,2.10
2023-11-04T10:12:25.211Z,2.15
2023-11-04T10:14:51.946Z,1.70
2023-11-04T10:17:19.004Z,1.73
2023-11-04T10:19:45.783Z,1.35
2023-11-04T10:22:13.697Z,2.10
2023-11-04T10:24:40.424Z,1.35
2023-11-04T10:27:07.161Z,1.13
2023-11-04T10:29:34.488Z,1.05
2023-11-04T10:32:05.021Z,1.73
2023-11-04T10:34:36.048Z,1.30
2023-11-04T10:37:14.565Z,2.78
2023-11-04T10:39:48.090Z,1.92
2023-11-04T10:42:20.465Z,1.27
2023-11-04T10:47:36.449Z,1.17
2023-11-04T10:50:24.356Z,2.78
2023-11-04T10:53:11.871Z,1.80
2023-11-04T10:55:49.705Z,2.00
2023-11-04T10:58:31.075Z,4.13
2023-11-04T11:00:59.119Z,1.73
2023-11-04T11:03:27.078Z,1.85
2023-11-04T11:05:55.956Z,2.75
2023-11-04T11:08:23.628Z,2.70
2023-11-04T11:11:03.448Z,1.60
2023-11-04T11:13:36.039Z,1.83
2023-11-04T11:16:03.605Z,2.10
2023-11-04T11:18:30.663Z,1.52
2023-11-04T11:21:11.280Z,2.10
2023-11-04T11:23:39.217Z,3.30
2023-11-04T11:26:13.636Z,2.60
2023-11-04T11:28:42.106Z,2.78
2023-11-04T11:31:14.091Z,3.08
2023-11-04T11:33:43.772Z,1.80
2023-11-04T11:36:14.726Z,2.13
2023-11-04T11:38:42.020Z,2.10
2023-11-04T11:41:12.198Z,2.90
2023-11-04T11:43:39.143Z,2.60
2023-11-04T11:46:07.240Z,2.15
2023-11-04T11:48:41.667Z,2.83
2023-11-04T11:51:13.554Z,1.65
2023-11-04T11:53:47.444Z,2.85
2023-11-04T11:56:14.262Z,1.00
2023-11-04T11:58:41.481Z,1.65
2023-11-04T12:01:09.497Z,1.33
2023-11-04T12:03:37.437Z,1.20
2023-11-04T12:06:05.082Z,1.92
2023-11-04T12:08:32.391Z,1.35
2023-11-04T12:10:59.327Z,0.90
2023-11-04T12:13:26.461Z,0.65
2023-11-04T12:15:54.053Z,1.05
2023-11-04T12:18:21.209Z,0.82
2023-11-04T12:20:48.130Z,0.55
2023-11-04T12:23:15.779Z,0.45
2023-11-04T12:25:43.517Z,1.33
2023-11-04T12:28:11.251Z,0.80
2023-11-04T12:30:38.458Z,0.52
2023-11-04T12:33:05.569Z,1.17
2023-11-04T12:35:35.175Z,0.88
2023-11-04T12:38:02.345Z,1.27
2023-11-04T12:40:30.792Z,3.17
2023-11-04T12:43:03.359Z,1.48
2023-11-04T12:45:31.095Z,1.60
2023-11-04T12:47:59.430Z,1.98
2023-11-04T12:50:26.311Z,1.52
2023-11-04T12:52:54.511Z,2.50
2023-11-04T12:55:21.966Z,1.83
2023-11-04T12:57:49.181Z,1.55
2023-11-04T13:00:16.311Z,1.30
2023-11-04T13:02:44.761Z,1.25
2023-11-04T13:05:11.896Z,1.52
2023-11-04T13:07:39.055Z,1.50
2023-11-04T13:10:09.863Z,1.85
2023-11-04T13:12:36.877Z,2.22
2023-11-04T13:15:04.193Z,2.25
2023-11-04T13:17:31.802Z,1.73
2023-11-04T13:19:58.600Z,1.90
2023-11-04T13:22:26.477Z,1.52
2023-11-04T13:24:53.334Z,2.47
2023-11-04T13:27:21.524Z,2.30
2023-11-04T13:29:49.331Z,2.95
2023-11-04T13:32:16.243Z,3.17
2023-11-04T13:34:43.079Z,1.85
2023-11-04T13:37:09.854Z,1.55
2023-11-04T13:39:36.662Z,1.60
2023-11-04T13:42:03.414Z,1.30
2023-11-04T13:44:32.177Z,1.33
2023-11-04T13:46:59.221Z,1.05
2023-11-04T13:49:29.060Z,1.27
2023-11-04T13:51:55.894Z,1.08
2023-11-04T13:54:22.605Z,0.80
2023-11-04T13:56:50.173Z,1.60
2023-11-04T13:59:16.821Z,1.55
2023-11-04T14:01:47.614Z,0.98
2023-11-04T14:04:14.967Z,1.00
2023-11-04T14:06:41.866Z,2.05
2023-11-04T14:09:08.668Z,1.00
2023-11-04T14:11:35.386Z,0.70
2023-11-04T14:14:02.144Z,0.90
2023-11-04T14:16:28.876Z,0.90
2023-11-04T14:18:55.795Z,1.05
2023-11-04T14:21:22.709Z,0.70
2023-11-04T14:23:49.573Z,0.80
2023-11-04T14:26:16.229Z,0.77
2023-11-04T14:28:42.872Z,1.00
2023-11-04T14:31:09.574Z,1.60
2023-11-04T14:33:36.398Z,2.15
2023-11-04T14:36:04.438Z,1.55
2023-11-04T14:38:31.110Z,3.35
2023-11-04T14:40:58.126Z,1.95
2023-11-04T14:43:24.946Z,1.33
2023-11-04T14:45:52.665Z,1.55
2023-11-04T14:48:19.414Z,3.13
2023-11-04T14:50:46.352Z,1.58
2023-11-04T14:53:13.033Z,1.67
2023-11-04T14:55:39.954Z,2.83
2023-11-04T14:58:07.057Z,2.10
2023-11-04T15:00:33.824Z,1.80
2023-11-04T15:03:00.937Z,2.40
2023-11-04T15:05:27.661Z,1.05
2023-11-04T15:07:54.377Z,1.63
2023-11-04T15:10:21.287Z,2.83
2023-11-04T15:12:48.539Z,1.50
2023-11-04T15:15:52.815Z,1.23
2023-11-04T15:18:19.521Z,2.05
2023-11-04T15:21:07.096Z,1.50
2023-11-04T15:23:33.848Z,2.05
2023-11-04T15:26:00.502Z,2.33
2023-11-04T15:28:27.539Z,2.08
2023-11-04T15:30:54.310Z,2.22
2023-11-04T15:33:22.059Z,1.27
2023-11-04T15:35:49.633Z,2.42
2023-11-04T15:38:16.253Z,2.53
2023-11-04T15:40:43.154Z,1.98
2023-11-04T15:43:10.214Z,1.63
2023-11-04T15:45:37.290Z,2.78
2023-11-04T15:48:04.889Z,2.03
2023-11-04T15:50:31.783Z,2.58
2023-11-04T15:52:58.433Z,2.53
2023-11-04T15:55:25.195Z,1.80
2023-11-04T15:57:51.946Z,2.95
2023-11-04T16:00:18.878Z,1.60
2023-11-04T16:02:48.418Z,2.22
2023-11-04T16:05:15.424Z,1.95
2023-11-04T16:07:43.258Z,2.03
2023-11-04T16:10:13.218Z,3.03
2023-11-04T16:12:40.614Z,1.55
2023-11-04T16:15:10.795Z,1.55
2023-11-04T16:17:37.817Z,1.83
2023-11-04T16:20:05.179Z,1.83
2023-11-04T16:22:32.001Z,1.92
2023-11-04T16:24:58.782Z,2.08
2023-11-04T16:27:25.733Z,2.78
2023-11-04T16:29:52.410Z,2.40
2023-11-04T16:32:20.246Z,3.17
2023-11-04T16:34:47.184Z,2.72
2023-11-04T16:37:13.908Z,2.72
2023-11-04T16:39:44.584Z,4.35
2023-11-04T16:42:11.488Z,3.38
2023-11-04T16:44:38.193Z,3.28
2023-11-04T16:47:05.799Z,3.53
2023-11-04T16:49:32.839Z,4.35
2023-11-04T16:51:59.545Z,3.28
2023-11-04T16:54:26.271Z,3.28
2023-11-04T16:56:52.954Z,2.75
2023-11-04T16:59:19.653Z,3.15
2023-11-04T17:01:47.246Z,3.50
2023-11-04T17:04:14.081Z,2.83
2023-11-04T17:06:40.936Z,3.25
2023-11-04T17:09:10.879Z,2.80
2023-11-04T17:11:38.750Z,2.85
2023-11-04T17:14:06.309Z,3.47
2023-11-04T17:16:34.263Z,2.97
2023-11-04T17:19:02.156Z,3.20
2023-11-04T17:21:28.943Z,3.42
2023-11-04T17:23:56.209Z,3.67
2023-11-04T17:26:22.999Z,3.00
2023-11-04T17:28:49.818Z,2.15
2023-11-04T17:31:16.550Z,2.55
2023-11-04T17:33:43.838Z,3.13
2023-11-04T17:36:10.940Z,2.95
2023-11-04T17:38:37.672Z,2.70
2023-11-04T17:41:04.658Z,2.78
2023-11-04T17:43:31.540Z,3.08
2023-11-04T17:45:58.429Z,3.20
2023-11-04T17:48:26.267Z,2.85
2023-11-04T17:50:53.167Z,2.95
2023-11-04T17:53:20.784Z,3.40
2023-11-04T17:55:47.563Z,2.97
2023-11-04T17:58:14.811Z,3.17
2023-11-04T18:00:41.513Z,3.08
2023-11-04T18:03:08.797Z,2.67
2023-11-04T18:05:35.749Z,2.28
2023-11-04T18:08:03.658Z,3.20
2023-11-04T18:10:30.425Z,2.10
2023-11-04T18:12:57.076Z,1.80
2023-11-04T18:15:23.819Z,1.63
2023-11-04T18:17:51.698Z,1.83
2023-11-04T18:20:18.434Z,1.23
2023-11-04T18:22:45.197Z,1.25
2023-11-04T18:25:11.898Z,1.67
2023-11-04T18:27:51.105Z,1.38
2023-11-04T18:30:25.462Z,1.00
2023-11-04T18:32:52.426Z,1.20
2023-11-04T18:35:19.553Z,0.90
2023-11-04T18:37:46.377Z,1.35
2023-11-04T18:40:13.463Z,1.83
2023-11-04T18:42:40.338Z,0.82
2023-11-04T18:45:09.293Z,1.30
2023-11-04T18:47:36.130Z,1.80
2023-11-04T18:50:02.909Z,2.25
2023-11-04T18:52:31.183Z,2.40
2023-11-04T18:54:58.351Z,3.55
2023-11-04T18:57:25.414Z,4.30
2023-11-04T18:59:52.400Z,2.95
2023-11-04T19:02:22.916Z,3.35
2023-11-04T19:04:49.916Z,2.67
2023-11-04T19:07:16.800Z,3.10
2023-11-04T19:09:43.547Z,2.50
2023-11-04T19:12:10.766Z,3.88
2023-11-04T19:14:37.540Z,2.95
2023-11-04T19:17:04.480Z,3.63
2023-11-04T19:19:31.161Z,4.45
2023-11-04T19:21:57.980Z,3.97
2023-11-04T19:24:24.768Z,4.20
2023-11-04T19:26:51.495Z,4.38
2023-11-04T19:29:18.258Z,4.65
2023-11-04T19:31:44.948Z,4.47
2023-11-04T19:34:11.702Z,4.97
2023-11-04T19:36:38.377Z,4.55
2023-11-04T19:39:05.328Z,4.85
2023-11-04T19:41:32.103Z,6.38
2023-11-04T19:43:58.844Z,5.55
2023-11-04T19:46:28.414Z,5.72
2023-11-04T19:48:55.559Z,5.40
2023-11-04T19:51:22.379Z,5.60
2023-11-04T19:53:50.117Z,5.80
2023-11-04T19:56:16.792Z,5.25
2023-11-04T19:58:43.732Z,5.22
2023-11-04T20:01:10.697Z,5.78
2023-11-04T20:03:37.662Z,5.40
2023-11-04T20:06:04.845Z,4.88
2023-11-04T20:08:33.678Z,5.70
2023-11-04T20:11:00.440Z,6.95
2023-11-04T20:13:27.406Z,4.40
2023-11-04T20:15:54.594Z,4.97
2023-11-04T20:18:21.341Z,4.07
2023-11-04T20:20:48.858Z,5.45
2023-11-04T20:23:15.984Z,4.70
2023-11-04T20:25:42.692Z,7.25
2023-11-04T20:28:11.843Z,4.95
2023-11-04T20:30:38.517Z,4.50
2023-11-04T20:33:06.350Z,4.93
2023-11-04T20:35:33.146Z,4.57
2023-11-04T20:37:59.988Z,5.10
2023-11-04T20:40:27.842Z,4.43
2023-11-04T20:42:55.208Z,3.80
2023-11-04T20:45:23.714Z,4.40
2023-11-04T20:47:50.489Z,4.13
2023-11-04T20:50:17.280Z,4.13
2023-11-04T20:52:43.985Z,5.00
2023-11-04T20:55:10.797Z,4.57
2023-11-04T20:57:37.657Z,6.22
2023-11-04T21:00:05.973Z,6.53
2023-11-04T21:02:32.764Z,4.97
2023-11-04T21:04:59.550Z,5.03
2023-11-04T21:07:26.470Z,5.18
2023-11-04T21:09:54.346Z,5.40
2023-11-04T21:12:21.175Z,4.57
2023-11-04T21:14:47.824Z,5.28
2023-11-04T21:17:14.583Z,4.95
2023-11-04T21:19:41.371Z,5.05
2023-11-04T21:22:08.295Z,5.05
2023-11-04T21:24:35.029Z,6.10
2023-11-04T21:27:01.870Z,6.35
2023-11-04T21:29:28.590Z,5.80
2023-11-04T21:31:55.342Z,6.13
2023-11-04T21:34:22.219Z,5.50
2023-11-04T21:36:49.699Z,6.35
2023-11-04T21:39:16.902Z,6.32
2023-11-04T21:41:44.433Z,6.55
2023-11-04T21:44:11.206Z,6.75
2023-11-04T21:46:38.226Z,8.07
2023-11-04T21:49:05.190Z,7.60
2023-11-04T21:51:31.938Z,7.35
2023-11-04T21:53:58.626Z,6.32
2023-11-04T21:56:25.421Z,6.88
2023-11-04T21:58:52.128Z,7.05
2023-11-04T22:01:18.810Z,7.07
2023-11-04T22:03:46.889Z,8.45
2023-11-04T22:06:14.175Z,8.77
2023-11-04T22:08:42.778Z,7.50
2023-11-04T22:11:10.880Z,7.55
2023-11-04T22:13:37.572Z,7.28
2023-11-04T22:16:04.614Z,6.85
2023-11-04T22:18:31.843Z,9.70
2023-11-04T22:20:58.575Z,7.32
2023-11-04T22:23:25.394Z,7.03
2023-11-04T22:25:52.646Z,7.63
2023-11-04T22:28:19.478Z,6.93
2023-11-04T22:30:46.628Z,8.15
2023-11-04T22:33:13.567Z,6.63
2023-11-04T22:35:40.385Z,6.47
2023-11-04T22:38:07.133Z,7.15
2023-11-04T22:40:34.009Z,7.38
2023-11-04T22:43:00.784Z,6.55
2023-11-04T22:45:27.555Z,6.55
2023-11-04T22:47:55.242Z,5.70
2023-11-04T22:50:22.150Z,6.97
2023-11-04T22:52:48.937Z,7.53
2023-11-04T22:55:15.818Z,6.03
2023-11-04T22:57:42.674Z,6.20
2023-11-04T23:00:29.839Z,6.63
2023-11-04T23:02:57.796Z,6.05
2023-11-04T23:05:25.040Z,5.78
2023-11-04T23:07:51.812Z,6.07
2023-11-04T23:10:18.585Z,5.40
2023-11-04T23:12:48.189Z,6.10
2023-11-04T23:15:18.267Z,5.80
2023-11-04T23:17:45.026Z,5.13
2023-11-04T23:20:13.393Z,5.47
2023-11-04T23:22:40.585Z,5.80
2023-11-04T23:25:14.976Z,5.00
2023-11-04T23:27:47.522Z,5.03
2023-11-04T23:30:14.264Z,6.38
2023-11-04T23:32:41.102Z,5.10
2023-11-04T23:35:08.165Z,5.28
2023-11-04T23:37:34.889Z,5.30
2023-11-04T23:40:01.814Z,6.03
2023-11-04T23:42:28.511Z,5.38
2023-11-04T23:44:55.188Z,6.38
2023-11-04T23:47:21.995Z,6.15
2023-11-04T23:49:48.907Z,6.40
2023-11-04T23:52:15.714Z,6.03
2023-11-04T23:54:42.494Z,7.10
2023-11-04T23:57:09.273Z,5.72
2023-11-04T23:59:36.272Z,5.70
